sensor_id;sensor_type;location;lat;lon;timestamp;pressure;altitude;pressure_sealevel;temperature;humidity
56174;BME280;42058;52.308;20.924;2022-12-18T00:01:17;102045.77;;;-4.42;100.00
56174;BME280;42058;52.308;20.924;2022-12-18T00:03:36;102038.56;;;-4.41;100.00
56174;BME280;42058;52.308;20.924;2022-12-18T00:06:02;102036.47;;;-4.40;100.00
56174;BME280;42058;52.308;20.924;2022-12-18T00:08:28;102051.98;;;-4.39;100.00
56174;BME280;42058;52.308;20.924;2022-12-18T00:10:54;102047.25;;;-4.39;100.00
56174;BME280;42058;52.308;20.924;2022-12-18T00:13:21;102057.22;;;-4.37;100.00
56174;BME280;42058;52.308;20.924;2022-12-18T00:15:47;102052.95;;;-4.37;100.00
56174;BME280;42058;52.308;20.924;2022-12-18T00:18:13;102059.28;;;-4.38;100.00
56174;BME280;42058;52.308;20.924;2022-12-18T00:20:39;102059.80;;;-4.37;100.00
56174;BME280;42058;52.308;20.924;2022-12-18T00:23:06;102076.69;;;-4.34;100.00
56174;BME280;42058;52.308;20.924;2022-12-18T00:25:35;102077.16;;;-4.33;100.00
56174;BME280;42058;52.308;20.924;2022-12-18T00:28:03;102071.14;;;-4.34;100.00
56174;BME280;42058;52.308;20.924;2022-12-18T00:30:30;102069.95;;;-4.32;100.00
56174;BME280;42058;52.308;20.924;2022-12-18T00:32:57;102074.48;;;-4.28;100.00
56174;BME280;42058;52.308;20.924;2022-12-18T00:35:25;102081.88;;;-4.26;100.00
56174;BME280;42058;52.308;20.924;2022-12-18T00:37:51;102081.47;;;-4.26;100.00
56174;BME280;42058;52.308;20.924;2022-12-18T00:40:17;102088.81;;;-4.25;100.00
56174;BME280;42058;52.308;20.924;2022-12-18T00:42:44;102089.78;;;-4.23;100.00
56174;BME280;42058;52.308;20.924;2022-12-18T00:45:27;102094.11;;;-4.22;100.00
56174;BME280;42058;52.308;20.924;2022-12-18T00:47:55;102100.73;;;-4.19;100.00
56174;BME280;42058;52.308;20.924;2022-12-18T00:50:23;102102.89;;;-4.18;100.00
56174;BME280;42058;52.308;20.924;2022-12-18T00:52:50;102102.80;;;-4.20;100.00
56174;BME280;42058;52.308;20.924;2022-12-18T00:55:16;102101.92;;;-4.20;100.00
56174;BME280;42058;52.308;20.924;2022-12-18T00:57:43;102101.82;;;-4.22;100.00
56174;BME280;42058;52.308;20.924;2022-12-18T01:00:13;102107.47;;;-4.21;100.00
56174;BME280;42058;52.308;20.924;2022-12-18T01:02:41;102111.32;;;-4.21;100.00
56174;BME280;42058;52.308;20.924;2022-12-18T01:05:09;102116.94;;;-4.20;100.00
56174;BME280;42058;52.308;20.924;2022-12-18T01:07:37;102115.18;;;-4.21;100.00
56174;BME280;42058;52.308;20.924;2022-12-18T01:10:04;102121.61;;;-4.21;100.00
56174;BME280;42058;52.308;20.924;2022-12-18T01:12:34;102114.30;;;-4.21;100.00
56174;BME280;42058;52.308;20.924;2022-12-18T01:15:02;102116.37;;;-4.22;100.00
56174;BME280;42058;52.308;20.924;2022-12-18T01:17:29;102117.75;;;-4.21;100.00
56174;BME280;42058;52.308;20.924;2022-12-18T01:19:55;102123.36;;;-4.20;100.00
56174;BME280;42058;52.308;20.924;2022-12-18T01:22:21;102122.58;;;-4.19;100.00
56174;BME280;42058;52.308;20.924;2022-12-18T01:24:47;102129.41;;;-4.19;100.00
56174;BME280;42058;52.308;20.924;2022-12-18T01:27:13;102129.01;;;-4.19;100.00
56174;BME280;42058;52.308;20.924;2022-12-18T01:29:39;102129.52;;;-4.18;100.00
56174;BME280;42058;52.308;20.924;2022-12-18T01:32:05;102133.64;;;-4.20;100.00
56174;BME280;42058;52.308;20.924;2022-12-18T01:34:32;102143.45;;;-4.21;100.00
56174;BME280;42058;52.308;20.924;2022-12-18T01:36:58;102158.47;;;-4.20;100.00
56174;BME280;42058;52.308;20.924;2022-12-18T01:39:24;102164.48;;;-4.20;100.00
56174;BME280;42058;52.308;20.924;2022-12-18T01:41:50;102161.92;;;-4.20;100.00
56174;BME280;42058;52.308;20.924;2022-12-18T01:47:45;102170.45;;;-4.21;100.00
56174;BME280;42058;52.308;20.924;2022-12-18T01:50:38;102173.02;;;-4.21;100.00
56174;BME280;42058;52.308;20.924;2022-12-18T01:53:11;102175.59;;;-4.21;100.00
56174;BME280;42058;52.308;20.924;2022-12-18T01:55:55;102177.84;;;-4.19;100.00
56174;BME280;42058;52.308;20.924;2022-12-18T01:58:27;102179.23;;;-4.17;100.00
56174;BME280;42058;52.308;20.924;2022-12-18T02:01:03;102179.33;;;-4.16;100.00
56174;BME280;42058;52.308;20.924;2022-12-18T02:03:31;102184.58;;;-4.14;100.00
56174;BME280;42058;52.308;20.924;2022-12-18T02:15:00;102205.05;;;-4.16;100.00
56174;BME280;42058;52.308;20.924;2022-12-18T02:17:40;102218.67;;;-4.17;100.00
56174;BME280;42058;52.308;20.924;2022-12-18T02:22:59;102223.72;;;-4.18;100.00
56174;BME280;42058;52.308;20.924;2022-12-18T02:25:58;102221.05;;;-4.20;100.00
56174;BME280;42058;52.308;20.924;2022-12-18T02:28:36;102223.14;;;-4.21;100.00
56174;BME280;42058;52.308;20.924;2022-12-18T02:31:07;102221.86;;;-4.21;100.00
56174;BME280;42058;52.308;20.924;2022-12-18T02:33:37;102229.97;;;-4.21;100.00
56174;BME280;42058;52.308;20.924;2022-12-18T02:36:05;102231.26;;;-4.21;100.00
56174;BME280;42058;52.308;20.924;2022-12-18T02:38:33;102233.83;;;-4.21;100.00
56174;BME280;42058;52.308;20.924;2022-12-18T02:41:03;102234.30;;;-4.20;100.00
56174;BME280;42058;52.308;20.924;2022-12-18T02:43:30;102241.23;;;-4.19;100.00
56174;BME280;42058;52.308;20.924;2022-12-18T02:45:59;102235.59;;;-4.20;100.00
56174;BME280;42058;52.308;20.924;2022-12-18T02:48:31;102240.83;;;-4.19;100.00
56174;BME280;42058;52.308;20.924;2022-12-18T02:51:03;102243.60;;;-4.22;100.00
56174;BME280;42058;52.308;20.924;2022-12-18T02:53:57;102250.34;;;-4.18;100.00
56174;BME280;42058;52.308;20.924;2022-12-18T02:56:35;102249.52;;;-4.17;100.00
56174;BME280;42058;52.308;20.924;2022-12-18T02:59:17;102255.95;;;-4.17;100.00
56174;BME280;42058;52.308;20.924;2022-12-18T03:02:16;102260.31;;;-4.16;100.00
56174;BME280;42058;52.308;20.924;2022-12-18T03:07:43;102272.77;;;-4.15;100.00
56174;BME280;42058;52.308;20.924;2022-12-18T03:10:20;102280.58;;;-4.14;100.00
56174;BME280;42058;52.308;20.924;2022-12-18T03:12:59;102291.33;;;-4.13;100.00
56174;BME280;42058;52.308;20.924;2022-12-18T03:15:30;102293.91;;;-4.13;100.00
56174;BME280;42058;52.308;20.924;2022-12-18T03:18:10;102301.25;;;-4.12;100.00
56174;BME280;42058;52.308;20.924;2022-12-18T03:20:35;102300.27;;;-4.14;100.00
56174;BME280;42058;52.308;20.924;2022-12-18T03:23:09;102300.73;;;-4.13;100.00
56174;BME280;42058;52.308;20.924;2022-12-18T03:25:39;102301.62;;;-4.13;100.00
56174;BME280;42058;52.308;20.924;2022-12-18T03:28:13;102305.47;;;-4.13;100.00
56174;BME280;42058;52.308;20.924;2022-12-18T03:30:44;102305.47;;;-4.13;100.00
56174;BME280;42058;52.308;20.924;2022-12-18T03:33:18;102305.98;;;-4.12;100.00
56174;BME280;42058;52.308;20.924;2022-12-18T03:36:03;102307.77;;;-4.11;100.00
56174;BME280;42058;52.308;20.924;2022-12-18T03:38:29;102319.41;;;-4.09;100.00
56174;BME280;42058;52.308;20.924;2022-12-18T03:41:19;102322.49;;;-4.08;100.00
56174;BME280;42058;52.308;20.924;2022-12-18T03:44:03;102322.90;;;-4.09;100.00
56174;BME280;42058;52.308;20.924;2022-12-18T03:46:44;102328.92;;;-4.08;100.00
56174;BME280;42058;52.308;20.924;2022-12-18T03:49:35;102333.35;;;-4.06;100.00
56174;BME280;42058;52.308;20.924;2022-12-18T03:52:28;102329.50;;;-4.06;100.00
56174;BME280;42058;52.308;20.924;2022-12-18T03:55:01;102333.35;;;-4.06;100.00
56174;BME280;42058;52.308;20.924;2022-12-18T03:57:31;102322.29;;;-4.04;100.00
56174;BME280;42058;52.308;20.924;2022-12-18T04:00:08;102335.14;;;-4.04;100.00
56174;BME280;42058;52.308;20.924;2022-12-18T04:02:57;102344.63;;;-4.03;100.00
56174;BME280;42058;52.308;20.924;2022-12-18T04:05:28;102341.98;;;-4.05;100.00
56174;BME280;42058;52.308;20.924;2022-12-18T04:07:57;102357.48;;;-4.03;100.00
56174;BME280;42058;52.308;20.924;2022-12-18T04:10:24;102353.14;;;-4.04;100.00
56174;BME280;42058;52.308;20.924;2022-12-18T04:12:55;102346.72;;;-4.04;100.00
56174;BME280;42058;52.308;20.924;2022-12-18T04:15:24;102354.84;;;-4.05;100.00
56174;BME280;42058;52.308;20.924;2022-12-18T04:17:50;102362.92;;;-4.06;100.00
56174;BME280;42058;52.308;20.924;2022-12-18T04:20:18;102364.20;;;-4.06;100.00
56174;BME280;42058;52.308;20.924;2022-12-18T04:22:44;102371.05;;;-4.06;100.00
56174;BME280;42058;52.308;20.924;2022-12-18T04:25:11;102378.35;;;-4.06;100.00
56174;BME280;42058;52.308;20.924;2022-12-18T04:27:39;102369.66;;;-4.08;100.00
56174;BME280;42058;52.308;20.924;2022-12-18T04:30:06;102383.69;;;-4.09;100.00
56174;BME280;42058;52.308;20.924;2022-12-18T04:32:34;102384.91;;;-4.11;100.00
56174;BME280;42058;52.308;20.924;2022-12-18T04:35:00;102389.54;;;-4.12;100.00
56174;BME280;42058;52.308;20.924;2022-12-18T04:37:26;102388.55;;;-4.14;100.00
56174;BME280;42058;52.308;20.924;2022-12-18T04:39:52;102387.06;;;-4.17;100.00
56174;BME280;42058;52.308;20.924;2022-12-18T04:42:20;102389.63;;;-4.17;100.00
56174;BME280;42058;52.308;20.924;2022-12-18T04:44:46;102394.67;;;-4.18;100.00
56174;BME280;42058;52.308;20.924;2022-12-18T04:47:12;102394.48;;;-4.21;100.00
56174;BME280;42058;52.308;20.924;2022-12-18T04:49:38;102406.73;;;-4.24;100.00
56174;BME280;42058;52.308;20.924;2022-12-18T04:52:04;102409.13;;;-4.27;100.00
56174;BME280;42058;52.308;20.924;2022-12-18T04:54:33;102404.75;;;-4.28;100.00
56174;BME280;42058;52.308;20.924;2022-12-18T04:56:59;102414.05;;;-4.30;100.00
56174;BME280;42058;52.308;20.924;2022-12-18T04:59:25;102423.05;;;-4.30;100.00
56174;BME280;42058;52.308;20.924;2022-12-18T05:01:51;102419.97;;;-4.31;100.00
56174;BME280;42058;52.308;20.924;2022-12-18T05:04:19;102421.55;;;-4.33;100.00
56174;BME280;42058;52.308;20.924;2022-12-18T05:06:45;102419.78;;;-4.34;100.00
56174;BME280;42058;52.308;20.924;2022-12-18T05:09:11;102422.36;;;-4.34;100.00
56174;BME280;42058;52.308;20.924;2022-12-18T05:11:37;102432.91;;;-4.36;100.00
56174;BME280;42058;52.308;20.924;2022-12-18T05:14:04;102431.61;;;-4.36;100.00
56174;BME280;42058;52.308;20.924;2022-12-18T05:16:30;102432.42;;;-4.37;100.00
56174;BME280;42058;52.308;20.924;2022-12-18T05:18:56;102442.70;;;-4.37;100.00
56174;BME280;42058;52.308;20.924;2022-12-18T05:21:22;102450.01;;;-4.37;100.00
56174;BME280;42058;52.308;20.924;2022-12-18T05:23:48;102457.13;;;-4.39;100.00
56174;BME280;42058;52.308;20.924;2022-12-18T05:26:16;102458.72;;;-4.41;100.00
56174;BME280;42058;52.308;20.924;2022-12-18T05:28:43;102463.64;;;-4.45;100.00
56174;BME280;42058;52.308;20.924;2022-12-18T05:31:09;102463.42;;;-4.48;100.00
56174;BME280;42058;52.308;20.924;2022-12-18T05:33:36;102465.52;;;-4.49;100.00
56174;BME280;42058;52.308;20.924;2022-12-18T05:36:04;102465.11;;;-4.48;100.00
56174;BME280;42058;52.308;20.924;2022-12-18T05:38:32;102479.13;;;-4.50;100.00
56174;BME280;42058;52.308;20.924;2022-12-18T05:41:00;102480.71;;;-4.52;100.00
56174;BME280;42058;52.308;20.924;2022-12-18T05:43:27;102484.64;;;-4.57;100.00
56174;BME280;42058;52.308;20.924;2022-12-18T05:45:54;102485.74;;;-4.60;100.00
56174;BME280;42058;52.308;20.924;2022-12-18T05:48:20;102487.28;;;-4.62;100.00
56174;BME280;42058;52.308;20.924;2022-12-18T05:50:49;102492.23;;;-4.65;100.00
56174;BME280;42058;52.308;20.924;2022-12-18T05:53:17;102490.03;;;-4.72;100.00
56174;BME280;42058;52.308;20.924;2022-12-18T05:55:45;102495.58;;;-4.66;100.00
56174;BME280;42058;52.308;20.924;2022-12-18T05:58:13;102499.72;;;-4.68;100.00
56174;BME280;42058;52.308;20.924;2022-12-18T06:00:43;102499.61;;;-4.70;100.00
56174;BME280;42058;52.308;20.924;2022-12-18T06:03:11;102501.30;;;-4.70;100.00
56174;BME280;42058;52.308;20.924;2022-12-18T06:05:40;102495.76;;;-4.70;100.00
56174;BME280;42058;52.308;20.924;2022-12-18T06:08:08;102503.58;;;-4.68;100.00
56174;BME280;42058;52.308;20.924;2022-12-18T06:10:34;102507.42;;;-4.68;100.00
56174;BME280;42058;52.308;20.924;2022-12-18T06:13:01;102509.70;;;-4.66;100.00
56174;BME280;42058;52.308;20.924;2022-12-18T06:15:27;102513.84;;;-4.68;100.00
56174;BME280;42058;52.308;20.924;2022-12-18T06:17:53;102517.41;;;-4.66;100.00
56174;BME280;42058;52.308;20.924;2022-12-18T06:20:20;102518.81;;;-4.65;100.00
56174;BME280;42058;52.308;20.924;2022-12-18T06:22:46;102522.26;;;-4.64;100.00
56174;BME280;42058;52.308;20.924;2022-12-18T06:25:12;102527.91;;;-4.63;100.00
56174;BME280;42058;52.308;20.924;2022-12-18T06:27:38;102534.33;;;-4.63;100.00
56174;BME280;42058;52.308;20.924;2022-12-18T06:30:06;102538.30;;;-4.61;100.00
56174;BME280;42058;52.308;20.924;2022-12-18T06:32:33;102543.03;;;-4.61;100.00
56174;BME280;42058;52.308;20.924;2022-12-18T06:34:59;102552.25;;;-4.58;100.00
56174;BME280;42058;52.308;20.924;2022-12-18T06:37:26;102557.39;;;-4.58;100.00
56174;BME280;42058;52.308;20.924;2022-12-18T06:39:53;102559.15;;;-4.57;100.00
56174;BME280;42058;52.308;20.924;2022-12-18T06:42:19;102556.58;;;-4.57;100.00
56174;BME280;42058;52.308;20.924;2022-12-18T06:44:45;102562.71;;;-4.55;100.00
56174;BME280;42058;52.308;20.924;2022-12-18T06:47:11;102566.67;;;-4.53;100.00
56174;BME280;42058;52.308;20.924;2022-12-18T06:49:37;102574.50;;;-4.52;100.00
56174;BME280;42058;52.308;20.924;2022-12-18T06:52:03;102578.46;;;-4.50;100.00
56174;BME280;42058;52.308;20.924;2022-12-18T06:54:29;102575.48;;;-4.50;100.00
56174;BME280;42058;52.308;20.924;2022-12-18T06:56:55;102576.38;;;-4.49;100.00
56174;BME280;42058;52.308;20.924;2022-12-18T06:59:21;102581.14;;;-4.49;100.00
56174;BME280;42058;52.308;20.924;2022-12-18T07:01:47;102586.77;;;-4.48;100.00
56174;BME280;42058;52.308;20.924;2022-12-18T07:04:13;102592.13;;;-4.45;100.00
56174;BME280;42058;52.308;20.924;2022-12-18T07:06:40;102594.80;;;-4.43;100.00
56174;BME280;42058;52.308;20.924;2022-12-18T07:09:06;102591.06;;;-4.41;100.00
56174;BME280;42058;52.308;20.924;2022-12-18T07:11:32;102593.13;;;-4.42;100.00
56174;BME280;42058;52.308;20.924;2022-12-18T07:13:59;102601.83;;;-4.40;100.00
56174;BME280;42058;52.308;20.924;2022-12-18T07:16:25;102599.25;;;-4.40;100.00
56174;BME280;42058;52.308;20.924;2022-12-18T07:18:55;102617.76;;;-4.39;100.00
56174;BME280;42058;52.308;20.924;2022-12-18T07:21:23;102618.12;;;-4.40;100.00
56174;BME280;42058;52.308;20.924;2022-12-18T07:23:51;102617.76;;;-4.39;100.00
56174;BME280;42058;52.308;20.924;2022-12-18T07:26:20;102616.95;;;-4.38;100.00
56174;BME280;42058;52.308;20.924;2022-12-18T07:28:47;102623.09;;;-4.36;100.00
56174;BME280;42058;52.308;20.924;2022-12-18T07:31:16;102623.71;;;-4.34;100.00
56174;BME280;42058;52.308;20.924;2022-12-18T07:33:45;102623.83;;;-4.32;100.00
56174;BME280;42058;52.308;20.924;2022-12-18T07:36:12;102622.25;;;-4.30;100.00
56174;BME280;42058;52.308;20.924;2022-12-18T07:38:39;102628.89;;;-4.27;100.00
56174;BME280;42058;52.308;20.924;2022-12-18T07:41:10;102642.34;;;-4.25;100.00
56174;BME280;42058;52.308;20.924;2022-12-18T07:43:39;102637.60;;;-4.25;100.00
56174;BME280;42058;52.308;20.924;2022-12-18T07:46:07;102650.16;;;-4.23;100.00
56174;BME280;42058;52.308;20.924;2022-12-18T07:48:33;102651.93;;;-4.22;100.00
56174;BME280;42058;52.308;20.924;2022-12-18T07:51:00;102656.70;;;-4.21;100.00
56174;BME280;42058;52.308;20.924;2022-12-18T07:53:28;102655.50;;;-4.20;100.00
56174;BME280;42058;52.308;20.924;2022-12-18T07:55:58;102668.75;;;-4.20;100.00
56174;BME280;42058;52.308;20.924;2022-12-18T07:58:26;102667.88;;;-4.21;100.00
56174;BME280;42058;52.308;20.924;2022-12-18T08:00:52;102679.92;;;-4.20;100.00
56174;BME280;42058;52.308;20.924;2022-12-18T08:03:19;102680.44;;;-4.19;100.00
56174;BME280;42058;52.308;20.924;2022-12-18T08:05:45;102683.78;;;-4.20;100.00
56174;BME280;42058;52.308;20.924;2022-12-18T08:08:11;102682.41;;;-4.21;100.00
56174;BME280;42058;52.308;20.924;2022-12-18T08:10:37;102687.63;;;-4.20;100.00
56174;BME280;42058;52.308;20.924;2022-12-18T08:13:04;102689.43;;;-4.19;100.00
56174;BME280;42058;52.308;20.924;2022-12-18T08:15:30;102687.63;;;-4.20;100.00
56174;BME280;42058;52.308;20.924;2022-12-18T08:17:56;102688.73;;;-4.16;100.00
56174;BME280;42058;52.308;20.924;2022-12-18T08:20:22;102695.50;;;-4.12;100.00
56174;BME280;42058;52.308;20.924;2022-12-18T08:22:49;102697.67;;;-4.11;100.00
56174;BME280;42058;52.308;20.924;2022-12-18T08:25:15;102703.81;;;-4.09;100.00
56174;BME280;42058;52.308;20.924;2022-12-18T08:27:41;102703.92;;;-4.08;100.00
56174;BME280;42058;52.308;20.924;2022-12-18T08:30:08;102714.32;;;-4.06;100.00
56174;BME280;42058;52.308;20.924;2022-12-18T08:32:36;102716.60;;;-4.04;100.00
56174;BME280;42058;52.308;20.924;2022-12-18T08:35:02;102727.77;;;-4.03;100.00
56174;BME280;42058;52.308;20.924;2022-12-18T08:37:28;102732.03;;;-4.04;100.00
56174;BME280;42058;52.308;20.924;2022-12-18T08:39:54;102739.86;;;-4.02;100.00
56174;BME280;42058;52.308;20.924;2022-12-18T08:42:20;102742.95;;;-4.01;100.00
56174;BME280;42058;52.308;20.924;2022-12-18T08:45:06;102738.17;;;-4.02;100.00
56174;BME280;42058;52.308;20.924;2022-12-18T08:47:33;102738.57;;;-4.02;100.00
56174;BME280;42058;52.308;20.924;2022-12-18T08:49:59;102736.88;;;-4.02;100.00
56174;BME280;42058;52.308;20.924;2022-12-18T08:52:25;102743.42;;;-4.00;100.00
56174;BME280;42058;52.308;20.924;2022-12-18T08:54:51;102740.56;;;-3.98;100.00
56174;BME280;42058;52.308;20.924;2022-12-18T08:57:17;102745.94;;;-3.95;100.00
56174;BME280;42058;52.308;20.924;2022-12-18T08:59:43;102741.30;;;-3.94;100.00
56174;BME280;42058;52.308;20.924;2022-12-18T09:02:11;102745.16;;;-3.94;100.00
56174;BME280;42058;52.308;20.924;2022-12-18T09:04:37;102741.38;;;-3.93;100.00
56174;BME280;42058;52.308;20.924;2022-12-18T09:07:05;102744.95;;;-3.91;100.00
56174;BME280;42058;52.308;20.924;2022-12-18T09:09:31;102748.03;;;-3.90;100.00
56174;BME280;42058;52.308;20.924;2022-12-18T09:11:58;102758.03;;;-3.88;100.00
56174;BME280;42058;52.308;20.924;2022-12-18T09:14:24;102750.31;;;-3.88;100.00
56174;BME280;42058;52.308;20.924;2022-12-18T09:16:50;102753.30;;;-3.88;100.00
56174;BME280;42058;52.308;20.924;2022-12-18T09:19:16;102759.95;;;-3.85;100.00
56174;BME280;42058;52.308;20.924;2022-12-18T09:21:42;102762.52;;;-3.85;100.00
56174;BME280;42058;52.308;20.924;2022-12-18T09:24:11;102765.98;;;-3.84;100.00
56174;BME280;42058;52.308;20.924;2022-12-18T09:26:39;102766.86;;;-3.84;100.00
56174;BME280;42058;52.308;20.924;2022-12-18T09:29:05;102768.66;;;-3.83;100.00
56174;BME280;42058;52.308;20.924;2022-12-18T09:31:55;102758.37;;;-3.83;100.00
56174;BME280;42058;52.308;20.924;2022-12-18T09:34:25;102753.34;;;-3.81;100.00
56174;BME280;42058;52.308;20.924;2022-12-18T09:36:53;102762.94;;;-3.79;100.00
56174;BME280;42058;52.308;20.924;2022-12-18T09:39:19;102760.36;;;-3.79;100.00
56174;BME280;42058;52.308;20.924;2022-12-18T09:41:53;102755.33;;;-3.77;100.00
56174;BME280;42058;52.308;20.924;2022-12-18T09:44:39;102761.95;;;-3.74;100.00
56174;BME280;42058;52.308;20.924;2022-12-18T09:47:28;102764.74;;;-3.71;100.00
56174;BME280;42058;52.308;20.924;2022-12-18T09:50:05;102764.45;;;-3.69;100.00
56174;BME280;42058;52.308;20.924;2022-12-18T09:52:37;102769.71;;;-3.68;100.00
56174;BME280;42058;52.308;20.924;2022-12-18T09:55:28;102775.85;;;-3.65;100.00
56174;BME280;42058;52.308;20.924;2022-12-18T09:58:31;102769.94;;;-3.64;100.00
56174;BME280;42058;52.308;20.924;2022-12-18T10:01:02;102761.92;;;-3.62;100.00
56174;BME280;42058;52.308;20.924;2022-12-18T10:03:28;102775.48;;;-3.58;100.00
56174;BME280;42058;52.308;20.924;2022-12-18T10:06:07;102781.92;;;-3.58;100.00
56174;BME280;42058;52.308;20.924;2022-12-18T10:09:05;102785.78;;;-3.58;100.00
56174;BME280;42058;52.308;20.924;2022-12-18T10:12:13;102786.78;;;-3.56;100.00
56174;BME280;42058;52.308;20.924;2022-12-18T10:20:33;102786.48;;;-3.54;100.00
56174;BME280;42058;52.308;20.924;2022-12-18T10:26:06;102791.27;;;-3.54;100.00
56174;BME280;42058;52.308;20.924;2022-12-18T10:28:36;102790.86;;;-3.53;100.00
56174;BME280;42058;52.308;20.924;2022-12-18T10:31:21;102794.83;;;-3.52;100.00
56174;BME280;42058;52.308;20.924;2022-12-18T10:33:48;102785.31;;;-3.53;100.00
56174;BME280;42058;52.308;20.924;2022-12-18T10:36:14;102790.56;;;-3.51;100.00
56174;BME280;42058;52.308;20.924;2022-12-18T10:38:40;102783.84;;;-3.49;100.00
56174;BME280;42058;52.308;20.924;2022-12-18T10:44:18;102784.58;;;-3.45;100.00
56174;BME280;42058;52.308;20.924;2022-12-18T10:46:46;102788.51;;;-3.43;100.00
56174;BME280;42058;52.308;20.924;2022-12-18T10:49:26;102780.42;;;-3.43;100.00
56174;BME280;42058;52.308;20.924;2022-12-18T10:52:18;102774.17;;;-3.40;100.00
56174;BME280;42058;52.308;20.924;2022-12-18T10:54:53;102770.71;;;-3.40;100.00
56174;BME280;42058;52.308;20.924;2022-12-18T10:57:30;102777.26;;;-3.39;100.00
56174;BME280;42058;52.308;20.924;2022-12-18T11:02:48;102779.53;;;-3.37;100.00
56174;BME280;42058;52.308;20.924;2022-12-18T11:05:31;102785.20;;;-3.36;100.00
56174;BME280;42058;52.308;20.924;2022-12-18T11:08:00;102777.95;;;-3.35;100.00
56174;BME280;42058;52.308;20.924;2022-12-18T11:10:35;102785.68;;;-3.35;100.00
56174;BME280;42058;52.308;20.924;2022-12-18T11:13:11;102790.05;;;-3.34;100.00
56174;BME280;42058;52.308;20.924;2022-12-18T11:15:41;102788.47;;;-3.32;100.00
56174;BME280;42058;52.308;20.924;2022-12-18T11:18:22;102779.16;;;-3.30;100.00
56174;BME280;42058;52.308;20.924;2022-12-18T11:23:21;102782.95;;;-3.24;100.00
56174;BME280;42058;52.308;20.924;2022-12-18T11:25:52;102784.94;;;-3.20;100.00
56174;BME280;42058;52.308;20.924;2022-12-18T11:28:29;102790.30;;;-3.17;100.00
56174;BME280;42058;52.308;20.924;2022-12-18T11:31:22;102791.30;;;-3.15;100.00
56174;BME280;42058;52.308;20.924;2022-12-18T11:36:39;102800.70;;;-3.09;100.00
56174;BME280;42058;52.308;20.924;2022-12-18T11:42:23;102792.02;;;-3.04;100.00
56174;BME280;42058;52.308;20.924;2022-12-18T11:45:00;102794.77;;;-3.01;100.00
56174;BME280;42058;52.308;20.924;2022-12-18T11:47:44;102790.65;;;-2.99;100.00
56174;BME280;42058;52.308;20.924;2022-12-18T11:50:48;102794.33;;;-2.96;100.00
56174;BME280;42058;52.308;20.924;2022-12-18T11:53:12;102798.37;;;-2.93;100.00
56174;BME280;42058;52.308;20.924;2022-12-18T11:55:41;102795.50;;;-2.91;100.00
56174;BME280;42058;52.308;20.924;2022-12-18T11:58:47;102801.64;;;-2.88;100.00
56174;BME280;42058;52.308;20.924;2022-12-18T12:01:36;102797.51;;;-2.86;100.00
56174;BME280;42058;52.308;20.924;2022-12-18T12:04:34;102807.00;;;-2.85;100.00
56174;BME280;42058;52.308;20.924;2022-12-18T12:10:04;102801.36;;;-2.80;100.00
56174;BME280;42058;52.308;20.924;2022-12-18T12:12:52;102797.61;;;-2.78;100.00
56174;BME280;42058;52.308;20.924;2022-12-18T12:16:04;102803.34;;;-2.76;100.00
56174;BME280;42058;52.308;20.924;2022-12-18T12:21:39;102790.56;;;-2.74;100.00
56174;BME280;42058;52.308;20.924;2022-12-18T12:24:31;102803.15;;;-2.72;100.00
56174;BME280;42058;52.308;20.924;2022-12-18T12:32:16;102809.59;;;-2.72;100.00
56174;BME280;42058;52.308;20.924;2022-12-18T12:35:06;102824.79;;;-2.70;100.00
56174;BME280;42058;52.308;20.924;2022-12-18T12:38:05;102833.00;;;-2.69;100.00
56174;BME280;42058;52.308;20.924;2022-12-18T12:40:48;102829.13;;;-2.69;100.00
56174;BME280;42058;52.308;20.924;2022-12-18T12:46:13;102832.22;;;-2.68;100.00
56174;BME280;42058;52.308;20.924;2022-12-18T12:48:45;102829.64;;;-2.68;100.00
56174;BME280;42058;52.308;20.924;2022-12-18T12:51:18;102836.09;;;-2.68;100.00
56174;BME280;42058;52.308;20.924;2022-12-18T12:53:47;102836.76;;;-2.71;100.00
56174;BME280;42058;52.308;20.924;2022-12-18T12:56:16;102840.14;;;-2.72;100.00
56174;BME280;42058;52.308;20.924;2022-12-18T12:59:10;102851.13;;;-2.74;100.00
56174;BME280;42058;52.308;20.924;2022-12-18T13:04:51;102867.58;;;-2.79;100.00
56174;BME280;42058;52.308;20.924;2022-12-18T13:07:40;102870.45;;;-2.81;100.00
56174;BME280;42058;52.308;20.924;2022-12-18T13:12:53;102875.80;;;-2.84;100.00
56174;BME280;42058;52.308;20.924;2022-12-18T13:15:38;102881.25;;;-2.86;100.00
56174;BME280;42058;52.308;20.924;2022-12-18T13:18:13;102888.98;;;-2.86;100.00
56174;BME280;42058;52.308;20.924;2022-12-18T13:23:31;102885.38;;;-2.88;100.00
56174;BME280;42058;52.308;20.924;2022-12-18T13:28:52;102886.59;;;-2.90;100.00
56174;BME280;42058;52.308;20.924;2022-12-18T13:34:19;102895.86;;;-2.92;100.00
56174;BME280;42058;52.308;20.924;2022-12-18T13:36:47;102898.36;;;-2.94;100.00
56174;BME280;42058;52.308;20.924;2022-12-18T13:44:44;102895.86;;;-2.99;100.00
56174;BME280;42058;52.308;20.924;2022-12-18T13:47:33;102899.21;;;-3.00;100.00
56174;BME280;42058;52.308;20.924;2022-12-18T13:50:09;102904.77;;;-3.00;100.00
56174;BME280;42058;52.308;20.924;2022-12-18T13:52:39;102916.54;;;-3.04;100.00
56174;BME280;42058;52.308;20.924;2022-12-18T13:55:14;102910.80;;;-3.06;100.00
56174;BME280;42058;52.308;20.924;2022-12-18T13:57:38;102913.27;;;-3.08;100.00
56174;BME280;42058;52.308;20.924;2022-12-18T14:00:26;102913.04;;;-3.11;100.00
56174;BME280;42058;52.308;20.924;2022-12-18T14:02:56;102916.12;;;-3.10;100.00
56174;BME280;42058;52.308;20.924;2022-12-18T14:05:29;102920.88;;;-3.10;100.00
56174;BME280;42058;52.308;20.924;2022-12-18T14:08:08;102916.02;;;-3.12;100.00